createdAt,value
2024-04-15T00:03:58.811Z,65
2024-04-15T00:08:58.469Z,65
2024-04-15T00:13:58.627Z,65
2024-04-15T00:18:58.974Z,65
2024-04-15T00:23:59.047Z,65
2024-04-15T00:28:56.437Z,66
2024-04-15T00:33:56.064Z,66
2024-04-15T00:38:55.913Z,67
2024-04-15T00:43:56.197Z,68
2024-04-15T00:48:55.969Z,69
2024-04-15T00:53:55.901Z,68
2024-04-15T00:58:56.343Z,68
2024-04-15T01:03:56.522Z,67
2024-04-15T01:08:57.254Z,67
2024-04-15T01:13:53.538Z,68
2024-04-15T01:18:53.229Z,67
2024-04-15T01:23:52.959Z,68
2024-04-15T01:28:53.426Z,71
2024-04-15T01:33:53.232Z,73
2024-04-15T01:38:53.630Z,73
2024-04-15T01:43:53.964Z,71
2024-04-15T01:48:55.124Z,70
2024-04-15T01:53:51.346Z,69
2024-04-15T01:58:50.983Z,70
2024-04-15T02:00:52.969Z,71
2024-04-15T02:05:13.743Z,71
2024-04-15T02:10:13.580Z,73
2024-04-15T02:15:13.965Z,73
2024-04-15T02:20:13.568Z,74
2024-04-15T02:25:13.755Z,73
2024-04-15T02:30:12.271Z,74
2024-04-15T02:35:11.629Z,73
2024-04-15T02:40:11.721Z,74
2024-04-15T02:45:11.795Z,76
2024-04-15T02:50:11.273Z,77
2024-04-15T02:55:11.374Z,78
2024-04-15T02:59:33.858Z,77
2024-04-15T03:04:33.809Z,77
2024-04-15T03:09:33.736Z,76
2024-04-15T03:14:31.113Z,75
2024-04-15T03:19:31.035Z,75
2024-04-15T03:24:30.986Z,76
2024-04-15T03:29:30.515Z,77
2024-04-15T03:34:30.440Z,77
2024-04-15T03:39:30.468Z,77
2024-04-15T03:44:30.306Z,77
2024-04-15T03:49:30.450Z,75
2024-04-15T03:54:27.786Z,74
2024-04-15T03:59:16.272Z,74
2024-04-15T04:04:16.256Z,74
2024-04-15T04:09:16.631Z,74
2024-04-15T04:14:16.432Z,75
2024-04-15T04:19:16.507Z,74
2024-04-15T04:24:16.937Z,74
2024-04-15T04:29:16.699Z,76
2024-04-15T04:34:17.715Z,78
2024-04-15T04:39:14.031Z,80
2024-04-15T04:44:13.560Z,80
2024-04-15T04:49:13.494Z,80
2024-04-15T04:54:15.989Z,81
2024-04-15T04:59:13.915Z,81
2024-04-15T05:04:14.411Z,81
2024-04-15T05:09:14.292Z,80
2024-04-15T05:14:15.355Z,81
2024-04-15T05:19:11.730Z,81
2024-04-15T05:24:11.276Z,81
2024-04-15T05:29:11.385Z,82
2024-04-15T05:34:11.879Z,82
2024-04-15T05:39:11.606Z,82
2024-04-15T05:44:11.770Z,82
2024-04-15T05:49:11.267Z,82
2024-04-15T05:54:11.227Z,82
2024-04-15T05:59:09.920Z,82
2024-04-15T06:04:09.522Z,82
2024-04-15T06:09:09.137Z,82
2024-04-15T06:14:09.428Z,82
2024-04-15T06:19:09.089Z,81
2024-04-15T06:24:08.957Z,81
2024-04-15T06:29:09.418Z,81
2024-04-15T06:34:09.399Z,81
2024-04-15T06:39:07.097Z,80
2024-04-15T06:44:06.634Z,81
2024-04-15T06:49:06.453Z,81
2024-04-15T06:54:06.473Z,81
2024-04-15T06:59:05.938Z,82
2024-04-15T07:04:05.826Z,83
2024-04-15T07:09:06.033Z,84
2024-04-15T07:14:05.825Z,85
2024-04-15T07:19:05.887Z,86
2024-04-15T07:24:03.505Z,87
2024-04-15T07:29:03.023Z,87
2024-04-15T07:34:03.092Z,88
2024-04-15T07:39:03.267Z,88
2024-04-15T07:44:03.195Z,88
2024-04-15T07:49:03.389Z,89
2024-04-15T07:54:03.971Z,89
2024-04-15T07:59:03.992Z,88
2024-04-15T08:04:05.526Z,88
2024-04-15T08:09:01.805Z,85
2024-04-15T08:14:01.548Z,83
2024-04-15T08:19:02.058Z,83
2024-04-15T08:24:01.887Z,83
2024-04-15T08:29:02.163Z,79
2024-04-15T08:34:03.001Z,76
2024-04-15T08:39:03.058Z,76
2024-04-15T08:44:04.430Z,75
2024-04-15T08:49:00.947Z,71
2024-04-15T08:54:00.802Z,73
2024-04-15T08:59:02.901Z,75
2024-04-15T09:04:01.431Z,73
2024-04-15T09:09:01.406Z,72
2024-04-15T09:14:01.502Z,75
2024-04-15T09:19:01.129Z,74
2024-04-15T09:24:01.038Z,72
2024-04-15T09:28:59.954Z,71
2024-04-15T09:34:00.236Z,69
2024-04-15T09:38:59.494Z,67
2024-04-15T09:43:59.990Z,66
2024-04-15T09:48:59.549Z,70
2024-04-15T09:53:59.568Z,70
2024-04-15T09:58:59.622Z,69
2024-04-15T10:01:01.648Z,69
2024-04-15T10:05:32.388Z,69
2024-04-15T10:10:33.192Z,69
2024-04-15T10:15:33.217Z,69
2024-04-15T10:20:32.894Z,70
2024-04-15T10:25:33.365Z,72
2024-04-15T10:30:33.031Z,72
2024-04-15T10:35:33.795Z,70
2024-04-15T10:40:19.493Z,70
2024-04-15T10:45:19.326Z,68
2024-04-15T10:50:30.428Z,67
2024-04-15T10:55:19.610Z,67
2024-04-15T10:59:41.867Z,68
2024-04-15T11:04:42.479Z,67
2024-04-15T11:09:42.551Z,67
2024-04-15T11:14:43.528Z,68
2024-04-15T11:19:40.089Z,68
2024-04-15T11:24:39.680Z,67
2024-04-15T11:29:47.571Z,66
2024-04-15T11:34:39.877Z,66
2024-04-15T11:39:40.086Z,66
2024-04-15T11:44:40.822Z,63
2024-04-15T11:49:41.078Z,63
2024-04-15T11:54:42.324Z,62
2024-04-15T11:59:32.554Z,60
2024-04-15T12:04:35.596Z,58
2024-04-15T12:09:32.822Z,58
2024-04-15T12:14:32.882Z,56
2024-04-15T12:19:33.480Z,55
2024-04-15T12:24:33.578Z,55
2024-04-15T12:29:32.282Z,54
2024-04-15T12:34:32.794Z,50
2024-04-15T12:39:32.688Z,48
2024-04-15T12:44:33.289Z,47
2024-04-15T12:49:33.445Z,47
2024-04-15T12:54:34.278Z,49
2024-04-15T12:59:06.509Z,51
2024-04-15T13:04:03.976Z,51
2024-04-15T13:09:03.348Z,51
2024-04-15T13:14:03.608Z,51
2024-04-15T13:19:03.217Z,49
2024-04-15T13:24:03.153Z,49
2024-04-15T13:29:03.540Z,48
2024-04-15T13:34:03.773Z,46
2024-04-15T13:39:03.562Z,49
2024-04-15T13:49:00.159Z,49
2024-04-15T14:04:00.817Z,42
2024-04-15T14:09:00.774Z,41
2024-04-15T14:14:02.092Z,40
2024-04-15T14:19:01.517Z,40
2024-04-15T14:24:02.720Z,40
2024-04-15T14:28:59.005Z,41
2024-04-15T14:33:58.662Z,39
2024-04-15T14:38:58.515Z,39
2024-04-15T14:44:00.619Z,41
2024-04-15T14:53:58.483Z,43
2024-04-15T14:58:58.269Z,42
2024-04-15T15:01:00.100Z,42
2024-04-15T15:05:31.387Z,41
2024-04-15T15:10:31.141Z,40
2024-04-15T15:15:31.345Z,40
2024-04-15T15:20:31.169Z,40
2024-04-15T15:25:31.492Z,39
2024-04-15T15:30:31.373Z,39
2024-04-15T15:35:18.097Z,36
2024-04-15T15:40:17.519Z,36
2024-04-15T15:45:17.086Z,37
2024-04-15T15:50:17.567Z,36
2024-04-15T15:55:17.121Z,37
2024-04-15T15:59:39.285Z,37
2024-04-15T16:04:40.027Z,38
2024-04-15T16:09:39.652Z,39
2024-04-15T16:14:40.451Z,39
2024-04-15T16:19:36.874Z,39
2024-04-15T16:24:36.513Z,39
2024-04-15T16:29:36.845Z,39
2024-04-15T16:34:37.070Z,39
2024-04-15T16:39:37.000Z,39
2024-04-15T16:44:37.597Z,39
2024-04-15T16:49:37.928Z,40
2024-04-15T16:54:34.875Z,40
2024-04-15T16:59:32.004Z,41
2024-04-15T17:04:31.926Z,41
2024-04-15T17:14:31.796Z,41
2024-04-15T17:19:32.405Z,41
2024-04-15T17:24:33.476Z,40
2024-04-15T17:29:18.813Z,40
2024-04-15T17:34:18.448Z,40
2024-04-15T17:39:18.257Z,40
2024-04-15T17:44:18.520Z,41
2024-04-15T17:49:18.424Z,40
2024-04-15T17:54:18.563Z,40
2024-04-15T17:59:02.163Z,41
2024-04-15T18:01:04.024Z,41
2024-04-15T18:05:34.823Z,53
2024-04-15T18:10:35.195Z,65
2024-04-15T18:15:34.798Z,68
2024-04-15T18:20:35.334Z,68
2024-04-15T18:25:38.151Z,68
2024-04-15T18:30:35.286Z,69
2024-04-15T18:35:33.448Z,70
2024-04-15T18:40:33.515Z,73
2024-04-15T18:45:33.054Z,78
2024-04-15T18:50:35.573Z,81
2024-04-15T18:55:33.339Z,84
2024-04-15T18:59:55.907Z,86
2024-04-15T19:04:55.743Z,86
2024-04-15T19:15:12.841Z,88
2024-04-15T19:19:53.232Z,88
2024-04-15T19:29:52.730Z,89
2024-04-15T19:34:52.362Z,89
2024-04-15T19:44:52.081Z,89
2024-04-15T19:49:50.736Z,88
2024-04-15T19:59:34.363Z,88
2024-04-15T20:04:34.757Z,87
2024-04-15T20:14:35.696Z,88
2024-04-15T20:19:37.470Z,88
2024-04-15T20:29:34.254Z,88
2024-04-15T20:34:34.084Z,88
2024-04-15T20:39:34.341Z,88
2024-04-15T20:44:34.404Z,88
2024-04-15T20:49:35.026Z,89
2024-04-15T20:54:36.018Z,88
2024-04-15T20:59:04.387Z,88
2024-04-15T21:04:08.523Z,88
2024-04-15T21:09:04.096Z,88
2024-04-15T21:14:04.397Z,88
2024-04-15T21:19:04.943Z,88
2024-04-15T21:24:05.173Z,88
2024-04-15T21:29:04.759Z,88
2024-04-15T21:34:04.823Z,89
2024-04-15T21:39:02.257Z,89
2024-04-15T21:44:01.662Z,89
2024-04-15T21:49:01.447Z,89
2024-04-15T21:54:01.668Z,89
2024-04-15T21:58:45.667Z,89
2024-04-15T22:03:45.797Z,89
2024-04-15T22:08:46.113Z,88
2024-04-15T22:13:46.127Z,88
2024-04-15T22:18:47.085Z,88
2024-04-15T22:23:43.364Z,87
2024-04-15T22:28:43.233Z,86
2024-04-15T22:33:43.126Z,86
2024-04-15T22:38:43.322Z,87
2024-04-15T22:43:43.329Z,87
2024-04-15T22:48:43.464Z,86
2024-04-15T22:53:43.097Z,85
2024-04-15T22:58:44.744Z,84
2024-04-15T23:00:46.391Z,84
2024-04-15T23:05:06.041Z,83
2024-04-15T23:10:05.842Z,82
2024-04-15T23:15:06.306Z,82
2024-04-15T23:20:05.934Z,81
2024-04-15T23:25:06.231Z,81
2024-04-15T23:30:05.675Z,81
2024-04-15T23:35:05.711Z,81
2024-04-15T23:40:04.464Z,80
2024-04-15T23:45:04.028Z,80
2024-04-15T23:50:03.791Z,80
2024-04-15T23:55:03.860Z,80
2024-04-15T23:59:10.823Z,81
